Terminal Aerodrome Forecast
Issued by NWS

Home | Current Version | Previous Version | Text Only | Print | Product List | Glossary On
Versions: 1 2 3 4 5 6 7 8 9 10 11 12 13 14 15 16 17 18 19 20 21 22 23 24 25 26 27 28 29 30 31 32 33 34 35 36 37 38 39 40 41 42 43 44 45 46 47 48 49 50
826
FTUS43 KDMX 291120
TAFMCW
TAF
KMCW 291120Z 2912/3012 07009KT P6SM SCT080 BKN150
     FM291600 08015G22KT P6SM -SHRA SCT025 OVC060
     FM291900 07019G28KT 5SM -SHRA BR OVC025
     FM292300 07017G26KT 3SM -SHRA BR OVC007
     FM300300 06016KT 2SM -SHRA BR OVC004=

USA.gov is the U.S. government's official web portal to all federal, state and local government web resources and services.